sensor_id;sensor_type;location;lat;lon;timestamp;temperature;humidity
54082;DHT22;39986;50.770;0.266;2022-09-09T00:00:45;16.80;99.90
54082;DHT22;39986;50.770;0.266;2022-09-09T00:03:14;16.80;99.90
54082;DHT22;39986;50.770;0.266;2022-09-09T00:08:25;17.00;99.90
54082;DHT22;39986;50.770;0.266;2022-09-09T00:11:00;17.00;99.90
54082;DHT22;39986;50.770;0.266;2022-09-09T00:13:30;17.10;99.90
54082;DHT22;39986;50.770;0.266;2022-09-09T00:23:29;17.10;99.90
54082;DHT22;39986;50.770;0.266;2022-09-09T00:28:41;17.10;99.90
54082;DHT22;39986;50.770;0.266;2022-09-09T00:31:15;17.10;99.90
54082;DHT22;39986;50.770;0.266;2022-09-09T00:33:43;17.00;99.90
54082;DHT22;39986;50.770;0.266;2022-09-09T00:36:14;17.10;99.90
54082;DHT22;39986;50.770;0.266;2022-09-09T00:38:48;17.00;99.90
54082;DHT22;39986;50.770;0.266;2022-09-09T00:41:18;17.00;99.90
54082;DHT22;39986;50.770;0.266;2022-09-09T00:43:52;17.00;99.90
54082;DHT22;39986;50.770;0.266;2022-09-09T00:51:25;17.20;99.90
54082;DHT22;39986;50.770;0.266;2022-09-09T00:56:36;17.10;99.90
54082;DHT22;39986;50.770;0.266;2022-09-09T00:59:10;17.10;99.90
54082;DHT22;39986;50.770;0.266;2022-09-09T01:01:37;17.00;99.90
54082;DHT22;39986;50.770;0.266;2022-09-09T01:04:06;16.80;99.90
54082;DHT22;39986;50.770;0.266;2022-09-09T01:06:35;16.60;99.90
54082;DHT22;39986;50.770;0.266;2022-09-09T01:09:07;16.50;99.90
54082;DHT22;39986;50.770;0.266;2022-09-09T01:11:49;16.50;99.90
54082;DHT22;39986;50.770;0.266;2022-09-09T01:16:52;16.50;99.90
54082;DHT22;39986;50.770;0.266;2022-09-09T01:19:24;16.50;99.90
54082;DHT22;39986;50.770;0.266;2022-09-09T01:22:03;16.50;99.90
54082;DHT22;39986;50.770;0.266;2022-09-09T01:27:03;16.40;99.90
54082;DHT22;39986;50.770;0.266;2022-09-09T01:29:30;16.40;99.90
54082;DHT22;39986;50.770;0.266;2022-09-09T01:32:00;16.30;99.90
54082;DHT22;39986;50.770;0.266;2022-09-09T01:34:28;16.30;99.90
54082;DHT22;39986;50.770;0.266;2022-09-09T01:36:58;16.30;99.90
54082;DHT22;39986;50.770;0.266;2022-09-09T01:39:26;16.30;99.90
54082;DHT22;39986;50.770;0.266;2022-09-09T01:41:52;16.30;99.90
54082;DHT22;39986;50.770;0.266;2022-09-09T01:44:18;16.20;99.90
54082;DHT22;39986;50.770;0.266;2022-09-09T01:46:44;16.20;99.90
54082;DHT22;39986;50.770;0.266;2022-09-09T01:51:55;16.00;99.90
54082;DHT22;39986;50.770;0.266;2022-09-09T01:54:22;16.10;99.90
54082;DHT22;39986;50.770;0.266;2022-09-09T02:01:46;16.00;99.90
54082;DHT22;39986;50.770;0.266;2022-09-09T02:04:32;16.00;99.90
54082;DHT22;39986;50.770;0.266;2022-09-09T02:07:01;15.90;99.90
54082;DHT22;39986;50.770;0.266;2022-09-09T02:09:27;15.90;99.90
54082;DHT22;39986;50.770;0.266;2022-09-09T02:11:59;16.00;99.90
54082;DHT22;39986;50.770;0.266;2022-09-09T02:14:27;16.00;99.90
54082;DHT22;39986;50.770;0.266;2022-09-09T02:16:56;16.10;99.90
54082;DHT22;39986;50.770;0.266;2022-09-09T02:19:27;16.10;99.90
54082;DHT22;39986;50.770;0.266;2022-09-09T02:21:54;16.10;99.90
54082;DHT22;39986;50.770;0.266;2022-09-09T02:24:20;16.10;99.90
54082;DHT22;39986;50.770;0.266;2022-09-09T02:26:47;16.10;99.90
54082;DHT22;39986;50.770;0.266;2022-09-09T02:29:17;16.10;99.90
54082;DHT22;39986;50.770;0.266;2022-09-09T02:31:44;16.00;99.90
54082;DHT22;39986;50.770;0.266;2022-09-09T02:34:11;15.90;99.90
54082;DHT22;39986;50.770;0.266;2022-09-09T02:36:38;15.90;99.90
54082;DHT22;39986;50.770;0.266;2022-09-09T02:39:09;15.80;99.90
54082;DHT22;39986;50.770;0.266;2022-09-09T02:41:36;15.80;99.90
54082;DHT22;39986;50.770;0.266;2022-09-09T02:44:05;15.70;99.90
54082;DHT22;39986;50.770;0.266;2022-09-09T02:49:18;15.60;99.90
54082;DHT22;39986;50.770;0.266;2022-09-09T02:52:00;15.60;99.90
54082;DHT22;39986;50.770;0.266;2022-09-09T02:54:33;15.60;99.90
54082;DHT22;39986;50.770;0.266;2022-09-09T02:59:30;15.50;99.90
54082;DHT22;39986;50.770;0.266;2022-09-09T03:01:56;15.50;99.90
54082;DHT22;39986;50.770;0.266;2022-09-09T03:04:21;15.50;99.90
54082;DHT22;39986;50.770;0.266;2022-09-09T03:06:47;15.40;99.90
54082;DHT22;39986;50.770;0.266;2022-09-09T03:09:18;15.40;99.90
54082;DHT22;39986;50.770;0.266;2022-09-09T03:11:44;15.40;99.90
54082;DHT22;39986;50.770;0.266;2022-09-09T03:14:10;15.40;99.90
54082;DHT22;39986;50.770;0.266;2022-09-09T03:16:36;15.30;99.90
54082;DHT22;39986;50.770;0.266;2022-09-09T03:19:02;15.40;99.90
54082;DHT22;39986;50.770;0.266;2022-09-09T03:21:28;15.40;99.90
54082;DHT22;39986;50.770;0.266;2022-09-09T03:23:54;15.30;99.90
54082;DHT22;39986;50.770;0.266;2022-09-09T03:26:19;15.30;99.90
54082;DHT22;39986;50.770;0.266;2022-09-09T03:28:45;15.20;99.90
54082;DHT22;39986;50.770;0.266;2022-09-09T03:31:11;15.20;99.90
54082;DHT22;39986;50.770;0.266;2022-09-09T03:33:37;15.20;99.90
54082;DHT22;39986;50.770;0.266;2022-09-09T03:36:03;15.20;99.90
54082;DHT22;39986;50.770;0.266;2022-09-09T03:38:28;15.10;99.90
54082;DHT22;39986;50.770;0.266;2022-09-09T03:40:55;15.10;99.90
54082;DHT22;39986;50.770;0.266;2022-09-09T03:43:21;15.00;99.90
54082;DHT22;39986;50.770;0.266;2022-09-09T03:45:47;15.00;99.90
54082;DHT22;39986;50.770;0.266;2022-09-09T03:48:13;14.90;99.90
54082;DHT22;39986;50.770;0.266;2022-09-09T03:50:39;14.90;99.90
54082;DHT22;39986;50.770;0.266;2022-09-09T03:53:04;14.90;99.90
54082;DHT22;39986;50.770;0.266;2022-09-09T03:55:31;14.90;99.90
54082;DHT22;39986;50.770;0.266;2022-09-09T03:57:57;14.90;99.90
54082;DHT22;39986;50.770;0.266;2022-09-09T04:00:23;14.90;99.90
54082;DHT22;39986;50.770;0.266;2022-09-09T04:02:49;14.90;99.90
54082;DHT22;39986;50.770;0.266;2022-09-09T04:05:15;14.80;99.90
54082;DHT22;39986;50.770;0.266;2022-09-09T04:07:40;14.80;99.90
54082;DHT22;39986;50.770;0.266;2022-09-09T04:10:07;14.80;99.90
54082;DHT22;39986;50.770;0.266;2022-09-09T04:12:58;14.80;99.90
54082;DHT22;39986;50.770;0.266;2022-09-09T04:15:26;14.80;99.90
54082;DHT22;39986;50.770;0.266;2022-09-09T04:17:51;14.80;99.90
54082;DHT22;39986;50.770;0.266;2022-09-09T04:20:17;14.80;99.90
54082;DHT22;39986;50.770;0.266;2022-09-09T04:22:42;14.80;99.90
54082;DHT22;39986;50.770;0.266;2022-09-09T04:25:08;14.80;99.90
54082;DHT22;39986;50.770;0.266;2022-09-09T04:27:33;14.80;99.90
54082;DHT22;39986;50.770;0.266;2022-09-09T04:29:59;14.80;99.90
54082;DHT22;39986;50.770;0.266;2022-09-09T04:32:25;14.80;99.90
54082;DHT22;39986;50.770;0.266;2022-09-09T04:34:53;14.90;99.90
54082;DHT22;39986;50.770;0.266;2022-09-09T04:37:19;14.90;99.90
54082;DHT22;39986;50.770;0.266;2022-09-09T04:39:44;14.90;99.90
54082;DHT22;39986;50.770;0.266;2022-09-09T04:42:10;15.00;99.90
54082;DHT22;39986;50.770;0.266;2022-09-09T04:44:36;15.00;99.90
54082;DHT22;39986;50.770;0.266;2022-09-09T04:47:02;15.10;99.90
54082;DHT22;39986;50.770;0.266;2022-09-09T04:49:27;15.10;99.90
54082;DHT22;39986;50.770;0.266;2022-09-09T04:51:53;15.10;99.90
54082;DHT22;39986;50.770;0.266;2022-09-09T04:54:18;15.20;99.90
54082;DHT22;39986;50.770;0.266;2022-09-09T04:56:44;15.30;99.90
54082;DHT22;39986;50.770;0.266;2022-09-09T04:59:10;15.30;99.90
54082;DHT22;39986;50.770;0.266;2022-09-09T05:01:35;15.30;99.90
54082;DHT22;39986;50.770;0.266;2022-09-09T05:04:01;15.40;99.90
54082;DHT22;39986;50.770;0.266;2022-09-09T05:06:27;15.40;99.90
54082;DHT22;39986;50.770;0.266;2022-09-09T05:08:56;15.40;99.90
54082;DHT22;39986;50.770;0.266;2022-09-09T05:11:26;15.40;99.90
54082;DHT22;39986;50.770;0.266;2022-09-09T05:13:52;15.40;99.90
54082;DHT22;39986;50.770;0.266;2022-09-09T05:16:18;15.40;99.90
54082;DHT22;39986;50.770;0.266;2022-09-09T05:18:44;15.40;99.90
54082;DHT22;39986;50.770;0.266;2022-09-09T05:21:11;15.40;99.90
54082;DHT22;39986;50.770;0.266;2022-09-09T05:23:37;15.40;99.90
54082;DHT22;39986;50.770;0.266;2022-09-09T05:26:03;15.40;99.90
54082;DHT22;39986;50.770;0.266;2022-09-09T05:28:29;15.50;99.90
54082;DHT22;39986;50.770;0.266;2022-09-09T05:30:59;15.50;99.90
54082;DHT22;39986;50.770;0.266;2022-09-09T05:33:26;15.50;99.90
54082;DHT22;39986;50.770;0.266;2022-09-09T05:35:58;15.50;99.90
54082;DHT22;39986;50.770;0.266;2022-09-09T05:38:24;15.50;99.90
54082;DHT22;39986;50.770;0.266;2022-09-09T05:40:51;15.50;99.90
54082;DHT22;39986;50.770;0.266;2022-09-09T05:43:20;15.50;99.90
54082;DHT22;39986;50.770;0.266;2022-09-09T05:45:47;15.50;99.90
54082;DHT22;39986;50.770;0.266;2022-09-09T05:48:13;15.60;99.90
54082;DHT22;39986;50.770;0.266;2022-09-09T05:50:40;15.60;99.90
54082;DHT22;39986;50.770;0.266;2022-09-09T05:53:06;15.60;99.90
54082;DHT22;39986;50.770;0.266;2022-09-09T05:55:31;15.60;99.90
54082;DHT22;39986;50.770;0.266;2022-09-09T05:57:57;15.60;99.90
54082;DHT22;39986;50.770;0.266;2022-09-09T06:00:22;15.60;99.90
54082;DHT22;39986;50.770;0.266;2022-09-09T06:02:51;15.60;99.90
54082;DHT22;39986;50.770;0.266;2022-09-09T06:05:18;15.60;99.90
54082;DHT22;39986;50.770;0.266;2022-09-09T06:07:43;15.60;99.90
54082;DHT22;39986;50.770;0.266;2022-09-09T06:10:14;15.70;99.90
54082;DHT22;39986;50.770;0.266;2022-09-09T06:12:39;15.70;99.90
54082;DHT22;39986;50.770;0.266;2022-09-09T06:15:05;15.70;99.90
54082;DHT22;39986;50.770;0.266;2022-09-09T06:17:31;15.80;99.90
54082;DHT22;39986;50.770;0.266;2022-09-09T06:19:56;15.80;99.90
54082;DHT22;39986;50.770;0.266;2022-09-09T06:22:48;15.80;99.90
54082;DHT22;39986;50.770;0.266;2022-09-09T06:25:14;15.80;99.90
54082;DHT22;39986;50.770;0.266;2022-09-09T06:27:40;15.80;99.90
54082;DHT22;39986;50.770;0.266;2022-09-09T06:30:07;15.90;99.90
54082;DHT22;39986;50.770;0.266;2022-09-09T06:32:33;15.90;99.90
54082;DHT22;39986;50.770;0.266;2022-09-09T06:34:59;15.90;99.90
54082;DHT22;39986;50.770;0.266;2022-09-09T06:37:26;16.00;99.90
54082;DHT22;39986;50.770;0.266;2022-09-09T06:39:55;16.00;99.90
54082;DHT22;39986;50.770;0.266;2022-09-09T06:42:21;16.00;99.90
54082;DHT22;39986;50.770;0.266;2022-09-09T06:44:46;16.10;99.90
54082;DHT22;39986;50.770;0.266;2022-09-09T06:47:12;16.20;99.90
54082;DHT22;39986;50.770;0.266;2022-09-09T06:49:38;16.20;99.90
54082;DHT22;39986;50.770;0.266;2022-09-09T06:52:03;16.20;99.90
54082;DHT22;39986;50.770;0.266;2022-09-09T06:54:29;16.30;99.90
54082;DHT22;39986;50.770;0.266;2022-09-09T06:56:54;16.30;99.90
54082;DHT22;39986;50.770;0.266;2022-09-09T06:59:20;16.40;99.90
54082;DHT22;39986;50.770;0.266;2022-09-09T07:01:46;16.40;99.90
54082;DHT22;39986;50.770;0.266;2022-09-09T07:04:19;16.40;99.90
54082;DHT22;39986;50.770;0.266;2022-09-09T07:06:45;16.50;99.90
54082;DHT22;39986;50.770;0.266;2022-09-09T07:09:15;16.50;99.90
54082;DHT22;39986;50.770;0.266;2022-09-09T07:11:44;16.60;99.90
54082;DHT22;39986;50.770;0.266;2022-09-09T07:14:10;16.60;99.90
54082;DHT22;39986;50.770;0.266;2022-09-09T07:16:39;16.80;99.90
54082;DHT22;39986;50.770;0.266;2022-09-09T07:19:05;16.80;99.90
54082;DHT22;39986;50.770;0.266;2022-09-09T07:21:32;16.80;99.90
54082;DHT22;39986;50.770;0.266;2022-09-09T07:24:00;16.90;99.90
54082;DHT22;39986;50.770;0.266;2022-09-09T07:26:38;16.90;99.90
54082;DHT22;39986;50.770;0.266;2022-09-09T07:29:04;17.00;99.90
54082;DHT22;39986;50.770;0.266;2022-09-09T07:31:31;17.10;99.90
54082;DHT22;39986;50.770;0.266;2022-09-09T07:33:57;17.10;99.90
54082;DHT22;39986;50.770;0.266;2022-09-09T07:36:30;17.30;99.90
54082;DHT22;39986;50.770;0.266;2022-09-09T07:38:57;17.30;99.90
54082;DHT22;39986;50.770;0.266;2022-09-09T07:43:52;17.50;99.90
54082;DHT22;39986;50.770;0.266;2022-09-09T07:46:19;17.60;99.90
54082;DHT22;39986;50.770;0.266;2022-09-09T07:48:46;17.70;99.90
54082;DHT22;39986;50.770;0.266;2022-09-09T07:51:13;17.80;99.90
54082;DHT22;39986;50.770;0.266;2022-09-09T07:53:43;18.00;99.90
54082;DHT22;39986;50.770;0.266;2022-09-09T07:56:09;18.00;99.90
54082;DHT22;39986;50.770;0.266;2022-09-09T07:58:38;18.20;99.90
54082;DHT22;39986;50.770;0.266;2022-09-09T08:04:03;18.20;99.90
54082;DHT22;39986;50.770;0.266;2022-09-09T08:06:30;18.10;99.90
54082;DHT22;39986;50.770;0.266;2022-09-09T08:08:56;18.10;99.90
54082;DHT22;39986;50.770;0.266;2022-09-09T08:11:25;18.20;99.90
54082;DHT22;39986;50.770;0.266;2022-09-09T08:13:51;18.30;99.90
54082;DHT22;39986;50.770;0.266;2022-09-09T08:16:18;18.50;99.90
54082;DHT22;39986;50.770;0.266;2022-09-09T08:18:44;18.60;99.90
54082;DHT22;39986;50.770;0.266;2022-09-09T08:21:11;18.70;99.90
54082;DHT22;39986;50.770;0.266;2022-09-09T08:23:40;18.80;99.90
54082;DHT22;39986;50.770;0.266;2022-09-09T08:26:16;18.90;99.90
54082;DHT22;39986;50.770;0.266;2022-09-09T08:28:42;19.00;99.90
54082;DHT22;39986;50.770;0.266;2022-09-09T08:31:12;19.00;99.90
54082;DHT22;39986;50.770;0.266;2022-09-09T08:33:38;19.00;99.90
54082;DHT22;39986;50.770;0.266;2022-09-09T08:36:05;19.00;99.90
54082;DHT22;39986;50.770;0.266;2022-09-09T08:38:31;19.00;99.90
54082;DHT22;39986;50.770;0.266;2022-09-09T08:40:59;19.00;99.90
54082;DHT22;39986;50.770;0.266;2022-09-09T08:43:26;19.00;99.90
54082;DHT22;39986;50.770;0.266;2022-09-09T08:45:59;19.00;99.90
54082;DHT22;39986;50.770;0.266;2022-09-09T08:48:34;19.00;99.90
54082;DHT22;39986;50.770;0.266;2022-09-09T08:51:03;19.00;99.90
54082;DHT22;39986;50.770;0.266;2022-09-09T08:53:46;19.10;99.90
54082;DHT22;39986;50.770;0.266;2022-09-09T08:56:14;19.10;99.90
54082;DHT22;39986;50.770;0.266;2022-09-09T08:58:51;19.10;99.90
54082;DHT22;39986;50.770;0.266;2022-09-09T09:09:02;19.10;99.90
54082;DHT22;39986;50.770;0.266;2022-09-09T09:11:37;19.10;99.90
54082;DHT22;39986;50.770;0.266;2022-09-09T09:14:14;19.20;99.90
54082;DHT22;39986;50.770;0.266;2022-09-09T09:19:14;19.40;99.90
54082;DHT22;39986;50.770;0.266;2022-09-09T09:21:44;19.50;99.90
54082;DHT22;39986;50.770;0.266;2022-09-09T09:27:07;19.70;99.90
54082;DHT22;39986;50.770;0.266;2022-09-09T09:29:36;19.80;99.90
54082;DHT22;39986;50.770;0.266;2022-09-09T09:32:03;19.70;99.90
54082;DHT22;39986;50.770;0.266;2022-09-09T09:34:30;19.40;99.90
54082;DHT22;39986;50.770;0.266;2022-09-09T09:36:59;19.20;99.90
54082;DHT22;39986;50.770;0.266;2022-09-09T09:41:52;19.50;99.90
54082;DHT22;39986;50.770;0.266;2022-09-09T09:46:49;19.50;99.90
54082;DHT22;39986;50.770;0.266;2022-09-09T09:49:15;19.60;99.90
54082;DHT22;39986;50.770;0.266;2022-09-09T09:51:42;19.70;99.90
54082;DHT22;39986;50.770;0.266;2022-09-09T09:56:41;20.10;99.90
54082;DHT22;39986;50.770;0.266;2022-09-09T09:59:19;20.50;99.90
54082;DHT22;39986;50.770;0.266;2022-09-09T10:01:44;20.90;99.90
54082;DHT22;39986;50.770;0.266;2022-09-09T10:04:14;21.10;99.90
54082;DHT22;39986;50.770;0.266;2022-09-09T10:06:44;21.40;99.90
54082;DHT22;39986;50.770;0.266;2022-09-09T10:09:23;21.80;99.90
54082;DHT22;39986;50.770;0.266;2022-09-09T10:14:21;22.50;99.90
54082;DHT22;39986;50.770;0.266;2022-09-09T10:19:48;22.10;99.90
54082;DHT22;39986;50.770;0.266;2022-09-09T10:22:27;22.70;99.90
54082;DHT22;39986;50.770;0.266;2022-09-09T10:33:04;23.60;99.90
54082;DHT22;39986;50.770;0.266;2022-09-09T10:35:35;23.40;99.90
54082;DHT22;39986;50.770;0.266;2022-09-09T10:38:13;23.40;99.90
54082;DHT22;39986;50.770;0.266;2022-09-09T10:43:39;23.20;99.90
54082;DHT22;39986;50.770;0.266;2022-09-09T10:46:17;22.70;99.90
54082;DHT22;39986;50.770;0.266;2022-09-09T10:49:10;22.80;99.90
54082;DHT22;39986;50.770;0.266;2022-09-09T10:56:47;27.80;99.90
54082;DHT22;39986;50.770;0.266;2022-09-09T10:59:17;28.10;99.90
54082;DHT22;39986;50.770;0.266;2022-09-09T11:01:47;28.00;99.90
54082;DHT22;39986;50.770;0.266;2022-09-09T11:06:47;28.40;99.90
54082;DHT22;39986;50.770;0.266;2022-09-09T11:09:15;30.10;99.90
54082;DHT22;39986;50.770;0.266;2022-09-09T11:11:45;30.10;99.90
54082;DHT22;39986;50.770;0.266;2022-09-09T11:14:22;29.80;99.90
54082;DHT22;39986;50.770;0.266;2022-09-09T11:16:52;30.70;99.90
54082;DHT22;39986;50.770;0.266;2022-09-09T11:21:47;32.70;99.90
54082;DHT22;39986;50.770;0.266;2022-09-09T11:24:59;33.00;99.30
54082;DHT22;39986;50.770;0.266;2022-09-09T11:27:11;33.80;98.60
54082;DHT22;39986;50.770;0.266;2022-09-09T11:32:26;34.30;95.40
54082;DHT22;39986;50.770;0.266;2022-09-09T11:37:57;33.50;95.20
54082;DHT22;39986;50.770;0.266;2022-09-09T11:40:30;33.40;94.60
54082;DHT22;39986;50.770;0.266;2022-09-09T11:43:01;33.20;94.70
54082;DHT22;39986;50.770;0.266;2022-09-09T11:45:27;32.20;96.40
54082;DHT22;39986;50.770;0.266;2022-09-09T11:47:55;31.30;97.60
54082;DHT22;39986;50.770;0.266;2022-09-09T11:52:47;30.50;98.90
54082;DHT22;39986;50.770;0.266;2022-09-09T11:55:27;30.00;99.90
54082;DHT22;39986;50.770;0.266;2022-09-09T11:58:15;30.40;99.50
54082;DHT22;39986;50.770;0.266;2022-09-09T12:00:44;30.90;98.50
54082;DHT22;39986;50.770;0.266;2022-09-09T12:03:31;31.70;97.50
54082;DHT22;39986;50.770;0.266;2022-09-09T12:05:56;32.60;96.60
54082;DHT22;39986;50.770;0.266;2022-09-09T12:08:26;32.30;96.10
54082;DHT22;39986;50.770;0.266;2022-09-09T12:10:53;32.60;96.10
54082;DHT22;39986;50.770;0.266;2022-09-09T12:13:20;34.10;94.10
54082;DHT22;39986;50.770;0.266;2022-09-09T12:15:48;34.20;93.10
54082;DHT22;39986;50.770;0.266;2022-09-09T12:18:16;33.30;94.40
54082;DHT22;39986;50.770;0.266;2022-09-09T12:21:02;32.30;96.50
54082;DHT22;39986;50.770;0.266;2022-09-09T12:23:32;32.20;97.00
54082;DHT22;39986;50.770;0.266;2022-09-09T12:34:08;31.50;96.60
54082;DHT22;39986;50.770;0.266;2022-09-09T12:36:35;29.50;98.10
54082;DHT22;39986;50.770;0.266;2022-09-09T12:39:09;27.80;99.90
54082;DHT22;39986;50.770;0.266;2022-09-09T12:41:36;26.50;99.90
54082;DHT22;39986;50.770;0.266;2022-09-09T12:44:06;26.20;99.90
54082;DHT22;39986;50.770;0.266;2022-09-09T12:46:33;27.10;99.90
54082;DHT22;39986;50.770;0.266;2022-09-09T12:49:04;27.20;99.90
54082;DHT22;39986;50.770;0.266;2022-09-09T12:51:40;26.40;99.90
54082;DHT22;39986;50.770;0.266;2022-09-09T12:54:12;25.50;99.90
54082;DHT22;39986;50.770;0.266;2022-09-09T12:56:39;25.00;99.90
54082;DHT22;39986;50.770;0.266;2022-09-09T12:59:05;24.50;99.90
54082;DHT22;39986;50.770;0.266;2022-09-09T13:01:31;23.70;99.90
54082;DHT22;39986;50.770;0.266;2022-09-09T13:03:58;23.30;99.90
54082;DHT22;39986;50.770;0.266;2022-09-09T13:06:30;23.00;99.90
54082;DHT22;39986;50.770;0.266;2022-09-09T13:08:57;22.60;99.90
54082;DHT22;39986;50.770;0.266;2022-09-09T13:11:43;22.30;99.90
54082;DHT22;39986;50.770;0.266;2022-09-09T13:14:14;22.10;99.90
54082;DHT22;39986;50.770;0.266;2022-09-09T13:16:53;21.70;99.90
54082;DHT22;39986;50.770;0.266;2022-09-09T13:19:20;21.40;99.90
54082;DHT22;39986;50.770;0.266;2022-09-09T13:21:47;21.20;99.90
54082;DHT22;39986;50.770;0.266;2022-09-09T13:24:26;21.30;99.90
54082;DHT22;39986;50.770;0.266;2022-09-09T13:27:02;21.30;99.90
54082;DHT22;39986;50.770;0.266;2022-09-09T13:29:28;21.10;99.90
54082;DHT22;39986;50.770;0.266;2022-09-09T13:31:54;21.00;99.90
54082;DHT22;39986;50.770;0.266;2022-09-09T13:34:29;20.90;99.90
54082;DHT22;39986;50.770;0.266;2022-09-09T13:36:59;20.90;99.90
54082;DHT22;39986;50.770;0.266;2022-09-09T13:39:27;20.90;99.90
54082;DHT22;39986;50.770;0.266;2022-09-09T13:41:56;20.90;99.90
54082;DHT22;39986;50.770;0.266;2022-09-09T13:44:26;21.00;99.90
54082;DHT22;39986;50.770;0.266;2022-09-09T13:47:02;20.90;99.90
54082;DHT22;39986;50.770;0.266;2022-09-09T13:49:29;20.90;99.90
54082;DHT22;39986;50.770;0.266;2022-09-09T13:52:05;21.00;99.90
54082;DHT22;39986;50.770;0.266;2022-09-09T13:54:33;21.10;99.90
54082;DHT22;39986;50.770;0.266;2022-09-09T13:56:58;21.60;99.90
54082;DHT22;39986;50.770;0.266;2022-09-09T13:59:25;22.00;99.90
54082;DHT22;39986;50.770;0.266;2022-09-09T14:01:51;22.40;99.90
54082;DHT22;39986;50.770;0.266;2022-09-09T14:04:17;22.50;99.90
54082;DHT22;39986;50.770;0.266;2022-09-09T14:06:46;22.50;99.90
54082;DHT22;39986;50.770;0.266;2022-09-09T14:09:13;22.20;99.90
54082;DHT22;39986;50.770;0.266;2022-09-09T14:11:39;22.10;99.90
54082;DHT22;39986;50.770;0.266;2022-09-09T14:14:05;22.10;99.90
54082;DHT22;39986;50.770;0.266;2022-09-09T14:16:31;21.90;99.90
54082;DHT22;39986;50.770;0.266;2022-09-09T14:18:58;21.70;99.90
54082;DHT22;39986;50.770;0.266;2022-09-09T14:21:27;21.80;99.90
54082;DHT22;39986;50.770;0.266;2022-09-09T14:23:53;21.90;99.90
54082;DHT22;39986;50.770;0.266;2022-09-09T14:26:22;23.40;99.90
54082;DHT22;39986;50.770;0.266;2022-09-09T14:28:48;25.60;99.90
54082;DHT22;39986;50.770;0.266;2022-09-09T14:31:15;27.30;99.90
54082;DHT22;39986;50.770;0.266;2022-09-09T14:33:48;27.80;99.90
54082;DHT22;39986;50.770;0.266;2022-09-09T14:36:14;26.40;99.90
54082;DHT22;39986;50.770;0.266;2022-09-09T14:38:40;24.70;99.90
54082;DHT22;39986;50.770;0.266;2022-09-09T14:41:07;23.60;99.90
54082;DHT22;39986;50.770;0.266;2022-09-09T14:43:32;22.90;99.90
54082;DHT22;39986;50.770;0.266;2022-09-09T14:46:08;22.80;99.90
54082;DHT22;39986;50.770;0.266;2022-09-09T14:48:35;23.00;99.90
54082;DHT22;39986;50.770;0.266;2022-09-09T14:51:04;23.20;99.90
54082;DHT22;39986;50.770;0.266;2022-09-09T14:53:30;23.00;99.90
54082;DHT22;39986;50.770;0.266;2022-09-09T14:56:02;22.60;99.90
54082;DHT22;39986;50.770;0.266;2022-09-09T14:58:30;22.20;99.90
54082;DHT22;39986;50.770;0.266;2022-09-09T15:01:01;21.80;99.90
54082;DHT22;39986;50.770;0.266;2022-09-09T15:03:27;21.70;99.90
54082;DHT22;39986;50.770;0.266;2022-09-09T15:05:53;21.80;99.90
54082;DHT22;39986;50.770;0.266;2022-09-09T15:08:18;22.10;99.90
54082;DHT22;39986;50.770;0.266;2022-09-09T15:10:44;22.50;99.90
54082;DHT22;39986;50.770;0.266;2022-09-09T15:13:10;23.10;99.90
54082;DHT22;39986;50.770;0.266;2022-09-09T15:15:36;25.20;99.90
54082;DHT22;39986;50.770;0.266;2022-09-09T15:18:01;26.50;99.90
54082;DHT22;39986;50.770;0.266;2022-09-09T15:20:27;25.90;99.90
54082;DHT22;39986;50.770;0.266;2022-09-09T15:22:52;24.80;99.90
54082;DHT22;39986;50.770;0.266;2022-09-09T15:25:18;23.80;99.90
54082;DHT22;39986;50.770;0.266;2022-09-09T15:27:44;23.30;99.90
54082;DHT22;39986;50.770;0.266;2022-09-09T15:30:09;23.00;99.90
54082;DHT22;39986;50.770;0.266;2022-09-09T15:32:35;22.70;99.90
54082;DHT22;39986;50.770;0.266;2022-09-09T15:35:01;22.70;99.90
54082;DHT22;39986;50.770;0.266;2022-09-09T15:37:26;22.50;99.90
54082;DHT22;39986;50.770;0.266;2022-09-09T15:39:52;22.30;99.90
54082;DHT22;39986;50.770;0.266;2022-09-09T15:42:19;22.30;99.90
54082;DHT22;39986;50.770;0.266;2022-09-09T15:44:44;22.20;99.90
54082;DHT22;39986;50.770;0.266;2022-09-09T15:47:10;22.10;99.90
54082;DHT22;39986;50.770;0.266;2022-09-09T15:49:39;22.00;99.90
54082;DHT22;39986;50.770;0.266;2022-09-09T15:52:05;21.90;99.90
54082;DHT22;39986;50.770;0.266;2022-09-09T15:54:31;21.70;99.90
54082;DHT22;39986;50.770;0.266;2022-09-09T15:56:58;21.40;99.90
54082;DHT22;39986;50.770;0.266;2022-09-09T15:59:25;21.20;99.90
54082;DHT22;39986;50.770;0.266;2022-09-09T16:01:51;21.10;99.90
54082;DHT22;39986;50.770;0.266;2022-09-09T16:04:18;21.00;99.90
54082;DHT22;39986;50.770;0.266;2022-09-09T16:06:59;20.90;99.90
54082;DHT22;39986;50.770;0.266;2022-09-09T16:09:25;20.80;99.90
54082;DHT22;39986;50.770;0.266;2022-09-09T16:11:52;20.70;99.90
54082;DHT22;39986;50.770;0.266;2022-09-09T16:14:19;20.50;99.90
54082;DHT22;39986;50.770;0.266;2022-09-09T16:16:45;20.40;99.90
54082;DHT22;39986;50.770;0.266;2022-09-09T16:19:11;20.30;99.90
54082;DHT22;39986;50.770;0.266;2022-09-09T16:21:41;20.30;99.90
54082;DHT22;39986;50.770;0.266;2022-09-09T16:24:08;20.30;99.90
54082;DHT22;39986;50.770;0.266;2022-09-09T16:26:35;20.30;99.90
54082;DHT22;39986;50.770;0.266;2022-09-09T16:29:01;20.40;99.90
54082;DHT22;39986;50.770;0.266;2022-09-09T16:31:28;20.40;99.90
54082;DHT22;39986;50.770;0.266;2022-09-09T16:33:54;20.40;99.90
54082;DHT22;39986;50.770;0.266;2022-09-09T16:36:24;20.40;99.90
54082;DHT22;39986;50.770;0.266;2022-09-09T16:38:56;20.40;99.90
54082;DHT22;39986;50.770;0.266;2022-09-09T16:41:23;20.50;99.90
54082;DHT22;39986;50.770;0.266;2022-09-09T16:43:52;20.60;99.90
54082;DHT22;39986;50.770;0.266;2022-09-09T16:46:19;20.70;99.90
54082;DHT22;39986;50.770;0.266;2022-09-09T16:48:45;20.70;99.90
54082;DHT22;39986;50.770;0.266;2022-09-09T16:51:21;20.50;99.90
54082;DHT22;39986;50.770;0.266;2022-09-09T16:54:15;20.50;99.90
54082;DHT22;39986;50.770;0.266;2022-09-09T16:56:42;20.40;99.90
54082;DHT22;39986;50.770;0.266;2022-09-09T16:59:09;20.30;99.90
54082;DHT22;39986;50.770;0.266;2022-09-09T17:01:36;20.20;99.90
54082;DHT22;39986;50.770;0.266;2022-09-09T17:04:09;20.10;99.90
54082;DHT22;39986;50.770;0.266;2022-09-09T17:06:36;20.00;99.90
54082;DHT22;39986;50.770;0.266;2022-09-09T17:09:08;20.00;99.90
54082;DHT22;39986;50.770;0.266;2022-09-09T17:11:38;19.90;99.90
54082;DHT22;39986;50.770;0.266;2022-09-09T17:14:05;19.90;99.90
54082;DHT22;39986;50.770;0.266;2022-09-09T17:16:31;19.80;99.90
54082;DHT22;39986;50.770;0.266;2022-09-09T17:18:59;19.70;99.90
54082;DHT22;39986;50.770;0.266;2022-09-09T17:21:27;19.70;99.90
54082;DHT22;39986;50.770;0.266;2022-09-09T17:23:53;19.60;99.90
54082;DHT22;39986;50.770;0.266;2022-09-09T17:26:20;19.50;99.90